Terminal Aerodrome Forecast
Issued by NWS

Current Version | Previous Version | Graphics & Text | Print | Product List | Glossary On
Versions: 1 2 3 4 5 6 7 8 9 10 11 12 13 14
000
FTUS41 KILN 221722
TAFLUK
TAF
KLUK 221722Z 2218/2318 15003KT P6SM SCT060
     FM230000 VRB03KT P6SM SKC
     FM230700 00000KT 1SM BR SKC
     FM231400 15004KT P6SM FEW040 SCT250=

USA.gov is the U.S. government's official web portal to all federal, state and local government web resources and services.